sensor_id;sensor_type;location;lat;lon;timestamp;temperature;humidity
36556;DHT22;40859;50.560;7.268;2023-02-26T00:01:53;21.20;77.20
36556;DHT22;40859;50.560;7.268;2023-02-26T00:04:22;21.20;76.50
36556;DHT22;40859;50.560;7.268;2023-02-26T00:06:48;21.20;76.80
36556;DHT22;40859;50.560;7.268;2023-02-26T00:09:17;21.20;77.20
36556;DHT22;40859;50.560;7.268;2023-02-26T00:11:43;21.20;76.40
36556;DHT22;40859;50.560;7.268;2023-02-26T00:14:10;21.20;75.90
36556;DHT22;40859;50.560;7.268;2023-02-26T00:16:38;21.20;76.50
36556;DHT22;40859;50.560;7.268;2023-02-26T00:19:04;21.20;76.30
36556;DHT22;40859;50.560;7.268;2023-02-26T00:21:31;21.20;76.20
36556;DHT22;40859;50.560;7.268;2023-02-26T00:23:57;21.20;76.50
36556;DHT22;40859;50.560;7.268;2023-02-26T00:26:27;21.20;76.60
36556;DHT22;40859;50.560;7.268;2023-02-26T00:28:53;21.20;76.60
36556;DHT22;40859;50.560;7.268;2023-02-26T00:31:19;21.10;77.30
36556;DHT22;40859;50.560;7.268;2023-02-26T00:33:49;21.20;76.50
36556;DHT22;40859;50.560;7.268;2023-02-26T00:36:28;21.20;75.90
36556;DHT22;40859;50.560;7.268;2023-02-26T00:39:25;21.10;76.30
36556;DHT22;40859;50.560;7.268;2023-02-26T00:41:56;21.20;77.40
36556;DHT22;40859;50.560;7.268;2023-02-26T00:44:22;21.10;76.40
36556;DHT22;40859;50.560;7.268;2023-02-26T00:46:48;21.10;77.50
36556;DHT22;40859;50.560;7.268;2023-02-26T00:49:34;21.10;76.30
36556;DHT22;40859;50.560;7.268;2023-02-26T00:52:05;21.10;76.00
36556;DHT22;40859;50.560;7.268;2023-02-26T00:54:35;21.20;76.30
36556;DHT22;40859;50.560;7.268;2023-02-26T00:57:00;21.10;75.70
36556;DHT22;40859;50.560;7.268;2023-02-26T00:59:28;21.10;75.60
36556;DHT22;40859;50.560;7.268;2023-02-26T01:01:54;21.10;76.30
36556;DHT22;40859;50.560;7.268;2023-02-26T01:04:20;21.10;76.10
36556;DHT22;40859;50.560;7.268;2023-02-26T01:06:48;21.10;76.20
36556;DHT22;40859;50.560;7.268;2023-02-26T01:09:33;21.10;76.30
36556;DHT22;40859;50.560;7.268;2023-02-26T01:12:05;21.10;76.20
36556;DHT22;40859;50.560;7.268;2023-02-26T01:14:31;21.10;75.40
36556;DHT22;40859;50.560;7.268;2023-02-26T01:17:18;21.10;75.50
36556;DHT22;40859;50.560;7.268;2023-02-26T01:19:49;21.10;76.00
36556;DHT22;40859;50.560;7.268;2023-02-26T01:23:00;21.10;76.10
36556;DHT22;40859;50.560;7.268;2023-02-26T01:25:40;21.10;75.80
36556;DHT22;40859;50.560;7.268;2023-02-26T01:28:07;21.10;75.60
36556;DHT22;40859;50.560;7.268;2023-02-26T01:30:33;21.00;75.80
36556;DHT22;40859;50.560;7.268;2023-02-26T01:33:07;21.10;75.80
36556;DHT22;40859;50.560;7.268;2023-02-26T01:35:47;21.00;75.00
36556;DHT22;40859;50.560;7.268;2023-02-26T01:42:20;21.10;75.50
36556;DHT22;40859;50.560;7.268;2023-02-26T01:44:58;21.10;75.40
36556;DHT22;40859;50.560;7.268;2023-02-26T01:47:27;21.10;75.60
36556;DHT22;40859;50.560;7.268;2023-02-26T01:49:55;21.10;75.80
36556;DHT22;40859;50.560;7.268;2023-02-26T01:56:42;21.00;75.60
36556;DHT22;40859;50.560;7.268;2023-02-26T01:59:09;21.00;74.80
36556;DHT22;40859;50.560;7.268;2023-02-26T02:01:36;21.00;74.80
36556;DHT22;40859;50.560;7.268;2023-02-26T02:04:03;21.00;75.30
36556;DHT22;40859;50.560;7.268;2023-02-26T02:06:29;21.00;76.50
36556;DHT22;40859;50.560;7.268;2023-02-26T02:08:55;21.00;75.50
36556;DHT22;40859;50.560;7.268;2023-02-26T02:11:21;21.00;75.40
36556;DHT22;40859;50.560;7.268;2023-02-26T02:23:07;21.00;76.10
36556;DHT22;40859;50.560;7.268;2023-02-26T02:28:43;20.90;75.20
36556;DHT22;40859;50.560;7.268;2023-02-26T02:38:08;20.90;74.60
36556;DHT22;40859;50.560;7.268;2023-02-26T02:40:36;20.90;74.50
36556;DHT22;40859;50.560;7.268;2023-02-26T02:43:06;20.90;74.70
36556;DHT22;40859;50.560;7.268;2023-02-26T02:45:39;20.90;74.80
36556;DHT22;40859;50.560;7.268;2023-02-26T02:48:15;20.90;74.70
36556;DHT22;40859;50.560;7.268;2023-02-26T02:50:43;20.90;75.00
36556;DHT22;40859;50.560;7.268;2023-02-26T02:53:13;20.90;74.80
36556;DHT22;40859;50.560;7.268;2023-02-26T02:55:42;20.90;74.20
36556;DHT22;40859;50.560;7.268;2023-02-26T02:58:14;20.90;73.90
36556;DHT22;40859;50.560;7.268;2023-02-26T03:00:43;20.90;75.60
36556;DHT22;40859;50.560;7.268;2023-02-26T03:03:23;20.90;74.20
36556;DHT22;40859;50.560;7.268;2023-02-26T03:05:50;20.80;74.10
36556;DHT22;40859;50.560;7.268;2023-02-26T03:08:17;20.90;73.70
36556;DHT22;40859;50.560;7.268;2023-02-26T03:10:43;20.90;74.10
36556;DHT22;40859;50.560;7.268;2023-02-26T03:13:16;20.90;73.80
36556;DHT22;40859;50.560;7.268;2023-02-26T03:18:35;20.90;74.40
36556;DHT22;40859;50.560;7.268;2023-02-26T03:25:48;20.90;74.20
36556;DHT22;40859;50.560;7.268;2023-02-26T03:32:20;20.80;74.70
36556;DHT22;40859;50.560;7.268;2023-02-26T03:34:47;20.80;73.20
36556;DHT22;40859;50.560;7.268;2023-02-26T03:37:17;20.80;72.60
36556;DHT22;40859;50.560;7.268;2023-02-26T03:39:51;20.80;73.10
36556;DHT22;40859;50.560;7.268;2023-02-26T03:42:23;20.80;73.50
36556;DHT22;40859;50.560;7.268;2023-02-26T03:44:54;20.80;74.00
36556;DHT22;40859;50.560;7.268;2023-02-26T03:47:21;20.80;74.10
36556;DHT22;40859;50.560;7.268;2023-02-26T03:50:07;20.80;74.10
36556;DHT22;40859;50.560;7.268;2023-02-26T03:52:34;20.80;73.90
36556;DHT22;40859;50.560;7.268;2023-02-26T03:55:08;20.80;73.90
36556;DHT22;40859;50.560;7.268;2023-02-26T03:57:35;20.80;73.80
36556;DHT22;40859;50.560;7.268;2023-02-26T04:00:01;20.80;73.90
36556;DHT22;40859;50.560;7.268;2023-02-26T04:02:30;20.80;73.70
36556;DHT22;40859;50.560;7.268;2023-02-26T04:05:02;20.80;73.70
36556;DHT22;40859;50.560;7.268;2023-02-26T04:07:30;20.80;73.30
36556;DHT22;40859;50.560;7.268;2023-02-26T04:09:56;20.80;73.00
36556;DHT22;40859;50.560;7.268;2023-02-26T04:12:23;20.80;74.00
36556;DHT22;40859;50.560;7.268;2023-02-26T04:14:49;20.80;73.80
36556;DHT22;40859;50.560;7.268;2023-02-26T04:17:15;20.80;73.60
36556;DHT22;40859;50.560;7.268;2023-02-26T04:19:40;20.70;73.70
36556;DHT22;40859;50.560;7.268;2023-02-26T04:22:06;20.80;73.40
36556;DHT22;40859;50.560;7.268;2023-02-26T04:24:32;20.70;70.80
36556;DHT22;40859;50.560;7.268;2023-02-26T04:26:57;20.70;70.20
36556;DHT22;40859;50.560;7.268;2023-02-26T04:29:23;20.70;69.10
36556;DHT22;40859;50.560;7.268;2023-02-26T04:31:49;20.60;66.40
36556;DHT22;40859;50.560;7.268;2023-02-26T04:34:14;20.50;66.30
36556;DHT22;40859;50.560;7.268;2023-02-26T04:36:40;20.50;68.60
36556;DHT22;40859;50.560;7.268;2023-02-26T04:39:06;20.50;69.80
36556;DHT22;40859;50.560;7.268;2023-02-26T04:41:31;20.50;71.50
36556;DHT22;40859;50.560;7.268;2023-02-26T04:43:57;20.60;72.50
36556;DHT22;40859;50.560;7.268;2023-02-26T04:46:22;20.60;72.20
36556;DHT22;40859;50.560;7.268;2023-02-26T04:48:48;20.60;72.60
36556;DHT22;40859;50.560;7.268;2023-02-26T04:51:14;20.60;74.00
36556;DHT22;40859;50.560;7.268;2023-02-26T04:53:40;20.60;72.30
36556;DHT22;40859;50.560;7.268;2023-02-26T04:56:05;20.60;73.50
36556;DHT22;40859;50.560;7.268;2023-02-26T04:58:32;20.60;73.10
36556;DHT22;40859;50.560;7.268;2023-02-26T05:00:57;20.60;72.90
36556;DHT22;40859;50.560;7.268;2023-02-26T05:03:23;20.60;73.40
36556;DHT22;40859;50.560;7.268;2023-02-26T05:05:49;20.60;73.40
36556;DHT22;40859;50.560;7.268;2023-02-26T05:08:14;20.60;72.90
36556;DHT22;40859;50.560;7.268;2023-02-26T05:10:40;20.60;73.10
36556;DHT22;40859;50.560;7.268;2023-02-26T05:13:06;20.60;73.60
36556;DHT22;40859;50.560;7.268;2023-02-26T05:15:31;20.60;72.40
36556;DHT22;40859;50.560;7.268;2023-02-26T05:17:57;20.60;72.80
36556;DHT22;40859;50.560;7.268;2023-02-26T05:20:23;20.60;72.90
36556;DHT22;40859;50.560;7.268;2023-02-26T05:22:48;20.60;72.50
36556;DHT22;40859;50.560;7.268;2023-02-26T05:25:14;20.60;72.10
36556;DHT22;40859;50.560;7.268;2023-02-26T05:27:40;20.60;72.60
36556;DHT22;40859;50.560;7.268;2023-02-26T05:30:07;20.60;73.20
36556;DHT22;40859;50.560;7.268;2023-02-26T05:32:33;20.60;72.70
36556;DHT22;40859;50.560;7.268;2023-02-26T05:34:59;20.60;72.90
36556;DHT22;40859;50.560;7.268;2023-02-26T05:37:25;20.60;73.10
36556;DHT22;40859;50.560;7.268;2023-02-26T05:39:50;20.60;73.80
36556;DHT22;40859;50.560;7.268;2023-02-26T05:42:16;20.60;72.90
36556;DHT22;40859;50.560;7.268;2023-02-26T05:44:42;20.60;72.30
36556;DHT22;40859;50.560;7.268;2023-02-26T05:47:07;20.60;71.90
36556;DHT22;40859;50.560;7.268;2023-02-26T05:49:33;20.60;72.70
36556;DHT22;40859;50.560;7.268;2023-02-26T05:51:59;20.60;72.70
36556;DHT22;40859;50.560;7.268;2023-02-26T05:54:24;20.60;72.50
36556;DHT22;40859;50.560;7.268;2023-02-26T05:56:50;20.50;72.20
36556;DHT22;40859;50.560;7.268;2023-02-26T05:59:16;20.50;71.50
36556;DHT22;40859;50.560;7.268;2023-02-26T06:01:41;20.50;72.00
36556;DHT22;40859;50.560;7.268;2023-02-26T06:04:07;20.50;72.10
36556;DHT22;40859;50.560;7.268;2023-02-26T06:06:33;20.50;72.10
36556;DHT22;40859;50.560;7.268;2023-02-26T06:09:00;20.50;70.70
36556;DHT22;40859;50.560;7.268;2023-02-26T06:11:27;20.50;71.70
36556;DHT22;40859;50.560;7.268;2023-02-26T06:13:53;20.50;71.00
36556;DHT22;40859;50.560;7.268;2023-02-26T06:16:19;20.50;70.70
36556;DHT22;40859;50.560;7.268;2023-02-26T06:18:45;20.50;71.80
36556;DHT22;40859;50.560;7.268;2023-02-26T06:21:11;20.50;71.50
36556;DHT22;40859;50.560;7.268;2023-02-26T06:23:36;20.50;71.70
36556;DHT22;40859;50.560;7.268;2023-02-26T06:26:02;20.50;71.90
36556;DHT22;40859;50.560;7.268;2023-02-26T06:28:28;20.50;72.90
36556;DHT22;40859;50.560;7.268;2023-02-26T06:30:54;20.50;73.00
36556;DHT22;40859;50.560;7.268;2023-02-26T06:33:20;20.50;72.50
36556;DHT22;40859;50.560;7.268;2023-02-26T06:35:46;20.50;72.70
36556;DHT22;40859;50.560;7.268;2023-02-26T06:38:12;20.50;71.80
36556;DHT22;40859;50.560;7.268;2023-02-26T06:40:37;20.50;72.60
36556;DHT22;40859;50.560;7.268;2023-02-26T06:43:03;20.50;72.90
36556;DHT22;40859;50.560;7.268;2023-02-26T06:45:28;20.50;73.20
36556;DHT22;40859;50.560;7.268;2023-02-26T06:47:54;20.50;72.90
36556;DHT22;40859;50.560;7.268;2023-02-26T06:50:20;20.50;73.10
36556;DHT22;40859;50.560;7.268;2023-02-26T06:52:45;20.50;72.90
36556;DHT22;40859;50.560;7.268;2023-02-26T06:55:11;20.50;73.60
36556;DHT22;40859;50.560;7.268;2023-02-26T06:57:37;20.50;72.90
36556;DHT22;40859;50.560;7.268;2023-02-26T07:00:03;20.50;71.90
36556;DHT22;40859;50.560;7.268;2023-02-26T07:02:29;20.50;72.50
36556;DHT22;40859;50.560;7.268;2023-02-26T07:04:55;20.50;72.70
36556;DHT22;40859;50.560;7.268;2023-02-26T07:07:20;20.50;72.90
36556;DHT22;40859;50.560;7.268;2023-02-26T07:09:46;20.50;72.90
36556;DHT22;40859;50.560;7.268;2023-02-26T07:12:12;20.50;72.80
36556;DHT22;40859;50.560;7.268;2023-02-26T07:14:37;20.50;72.80
36556;DHT22;40859;50.560;7.268;2023-02-26T07:17:03;20.50;72.80
36556;DHT22;40859;50.560;7.268;2023-02-26T07:19:29;20.50;72.90
36556;DHT22;40859;50.560;7.268;2023-02-26T07:21:57;20.50;72.90
36556;DHT22;40859;50.560;7.268;2023-02-26T07:24:23;20.50;72.70
36556;DHT22;40859;50.560;7.268;2023-02-26T07:26:48;20.50;72.90
36556;DHT22;40859;50.560;7.268;2023-02-26T07:29:14;20.50;72.90
36556;DHT22;40859;50.560;7.268;2023-02-26T07:31:40;20.50;73.30
36556;DHT22;40859;50.560;7.268;2023-02-26T07:34:05;20.50;72.90
36556;DHT22;40859;50.560;7.268;2023-02-26T07:36:31;20.50;73.90
36556;DHT22;40859;50.560;7.268;2023-02-26T07:38:57;20.50;72.50
36556;DHT22;40859;50.560;7.268;2023-02-26T07:41:22;20.50;74.00
36556;DHT22;40859;50.560;7.268;2023-02-26T07:43:48;20.50;73.10
36556;DHT22;40859;50.560;7.268;2023-02-26T07:46:14;20.60;73.00
36556;DHT22;40859;50.560;7.268;2023-02-26T07:48:40;20.50;73.30
36556;DHT22;40859;50.560;7.268;2023-02-26T07:51:06;20.60;73.40
36556;DHT22;40859;50.560;7.268;2023-02-26T07:53:32;20.60;73.00
36556;DHT22;40859;50.560;7.268;2023-02-26T07:55:58;20.50;73.50
36556;DHT22;40859;50.560;7.268;2023-02-26T07:58:24;20.60;73.40
36556;DHT22;40859;50.560;7.268;2023-02-26T08:00:49;20.50;73.50
36556;DHT22;40859;50.560;7.268;2023-02-26T08:03:17;20.50;73.60
36556;DHT22;40859;50.560;7.268;2023-02-26T08:05:43;20.60;73.60
36556;DHT22;40859;50.560;7.268;2023-02-26T08:08:08;20.60;73.60
36556;DHT22;40859;50.560;7.268;2023-02-26T08:10:34;20.50;74.50
36556;DHT22;40859;50.560;7.268;2023-02-26T08:13:00;20.50;73.60
36556;DHT22;40859;50.560;7.268;2023-02-26T08:15:26;20.60;73.70
36556;DHT22;40859;50.560;7.268;2023-02-26T08:17:51;20.50;73.40
36556;DHT22;40859;50.560;7.268;2023-02-26T08:20:18;20.50;73.40
36556;DHT22;40859;50.560;7.268;2023-02-26T08:22:43;20.60;73.40
36556;DHT22;40859;50.560;7.268;2023-02-26T08:25:09;20.50;73.40
36556;DHT22;40859;50.560;7.268;2023-02-26T08:27:35;20.60;73.30
36556;DHT22;40859;50.560;7.268;2023-02-26T08:30:01;20.60;73.20
36556;DHT22;40859;50.560;7.268;2023-02-26T08:32:27;20.60;74.00
36556;DHT22;40859;50.560;7.268;2023-02-26T08:34:52;20.60;73.20
36556;DHT22;40859;50.560;7.268;2023-02-26T08:37:18;20.60;73.10
36556;DHT22;40859;50.560;7.268;2023-02-26T08:39:47;20.50;73.60
36556;DHT22;40859;50.560;7.268;2023-02-26T08:42:12;20.50;73.70
36556;DHT22;40859;50.560;7.268;2023-02-26T08:44:41;20.50;72.90
36556;DHT22;40859;50.560;7.268;2023-02-26T08:47:06;20.60;72.80
36556;DHT22;40859;50.560;7.268;2023-02-26T08:49:32;20.60;72.70
36556;DHT22;40859;50.560;7.268;2023-02-26T08:51:58;20.50;72.40
36556;DHT22;40859;50.560;7.268;2023-02-26T08:54:24;20.60;72.60
36556;DHT22;40859;50.560;7.268;2023-02-26T08:56:49;20.50;72.30
36556;DHT22;40859;50.560;7.268;2023-02-26T08:59:15;20.50;72.40
36556;DHT22;40859;50.560;7.268;2023-02-26T09:01:41;20.50;71.50
36556;DHT22;40859;50.560;7.268;2023-02-26T09:04:06;20.50;72.80
36556;DHT22;40859;50.560;7.268;2023-02-26T09:06:32;20.50;73.40
36556;DHT22;40859;50.560;7.268;2023-02-26T09:08:58;20.60;73.60
36556;DHT22;40859;50.560;7.268;2023-02-26T09:11:24;20.60;74.20
36556;DHT22;40859;50.560;7.268;2023-02-26T09:13:49;20.60;74.50
36556;DHT22;40859;50.560;7.268;2023-02-26T09:16:15;20.60;75.00
36556;DHT22;40859;50.560;7.268;2023-02-26T09:18:41;20.60;75.00
36556;DHT22;40859;50.560;7.268;2023-02-26T09:21:06;20.60;75.30
36556;DHT22;40859;50.560;7.268;2023-02-26T09:23:32;20.50;75.20
36556;DHT22;40859;50.560;7.268;2023-02-26T09:25:58;20.60;75.70
36556;DHT22;40859;50.560;7.268;2023-02-26T09:28:24;20.60;74.80
36556;DHT22;40859;50.560;7.268;2023-02-26T09:30:50;20.60;75.00
36556;DHT22;40859;50.560;7.268;2023-02-26T09:33:16;20.60;75.80
36556;DHT22;40859;50.560;7.268;2023-02-26T09:35:42;20.60;75.30
36556;DHT22;40859;50.560;7.268;2023-02-26T09:38:08;20.60;75.20
36556;DHT22;40859;50.560;7.268;2023-02-26T09:41:37;20.60;75.60
36556;DHT22;40859;50.560;7.268;2023-02-26T09:44:20;20.60;75.90
36556;DHT22;40859;50.560;7.268;2023-02-26T09:46:59;20.60;75.20
36556;DHT22;40859;50.560;7.268;2023-02-26T09:52:22;20.60;77.00
36556;DHT22;40859;50.560;7.268;2023-02-26T09:54:50;20.60;76.20
36556;DHT22;40859;50.560;7.268;2023-02-26T09:57:23;20.60;76.10
36556;DHT22;40859;50.560;7.268;2023-02-26T09:59:59;20.60;76.10
36556;DHT22;40859;50.560;7.268;2023-02-26T10:02:46;20.60;75.70
36556;DHT22;40859;50.560;7.268;2023-02-26T10:05:22;20.60;75.70
36556;DHT22;40859;50.560;7.268;2023-02-26T10:07:59;20.60;75.60
36556;DHT22;40859;50.560;7.268;2023-02-26T10:11:16;20.60;73.70
36556;DHT22;40859;50.560;7.268;2023-02-26T10:13:47;20.60;74.30
36556;DHT22;40859;50.560;7.268;2023-02-26T10:16:15;20.60;72.70
36556;DHT22;40859;50.560;7.268;2023-02-26T10:18:50;20.60;73.90
36556;DHT22;40859;50.560;7.268;2023-02-26T10:21:22;20.60;73.30
36556;DHT22;40859;50.560;7.268;2023-02-26T10:23:50;20.60;72.40
36556;DHT22;40859;50.560;7.268;2023-02-26T10:26:24;20.60;69.70
36556;DHT22;40859;50.560;7.268;2023-02-26T10:34:31;20.50;73.80
36556;DHT22;40859;50.560;7.268;2023-02-26T10:40:58;20.60;74.80
36556;DHT22;40859;50.560;7.268;2023-02-26T10:43:32;20.50;70.50
36556;DHT22;40859;50.560;7.268;2023-02-26T10:46:14;20.50;74.20
36556;DHT22;40859;50.560;7.268;2023-02-26T10:52:45;20.50;74.80
36556;DHT22;40859;50.560;7.268;2023-02-26T10:59:02;20.60;75.80
36556;DHT22;40859;50.560;7.268;2023-02-26T11:01:29;20.60;75.50
36556;DHT22;40859;50.560;7.268;2023-02-26T11:03:57;20.60;75.80
36556;DHT22;40859;50.560;7.268;2023-02-26T11:06:27;20.60;75.10
36556;DHT22;40859;50.560;7.268;2023-02-26T11:08:54;20.60;76.00
36556;DHT22;40859;50.560;7.268;2023-02-26T11:11:34;20.60;75.90
36556;DHT22;40859;50.560;7.268;2023-02-26T21:53:13;20.90;73.60
36556;DHT22;40859;50.560;7.268;2023-02-26T21:55:39;20.80;73.30
36556;DHT22;40859;50.560;7.268;2023-02-26T21:58:04;20.80;73.40
36556;DHT22;40859;50.560;7.268;2023-02-26T22:00:30;20.80;73.30
36556;DHT22;40859;50.560;7.268;2023-02-26T22:02:56;20.90;73.40
36556;DHT22;40859;50.560;7.268;2023-02-26T22:05:22;20.90;73.40
36556;DHT22;40859;50.560;7.268;2023-02-26T22:07:47;20.80;73.30
36556;DHT22;40859;50.560;7.268;2023-02-26T22:10:13;20.80;73.10
36556;DHT22;40859;50.560;7.268;2023-02-26T22:12:39;20.80;73.10
36556;DHT22;40859;50.560;7.268;2023-02-26T22:15:05;20.80;73.00
36556;DHT22;40859;50.560;7.268;2023-02-26T22:17:31;20.80;73.00
36556;DHT22;40859;50.560;7.268;2023-02-26T22:19:57;20.80;72.90
36556;DHT22;40859;50.560;7.268;2023-02-26T22:22:22;20.90;73.00
36556;DHT22;40859;50.560;7.268;2023-02-26T22:24:48;20.80;72.90
36556;DHT22;40859;50.560;7.268;2023-02-26T22:27:14;20.90;73.10
36556;DHT22;40859;50.560;7.268;2023-02-26T22:29:40;20.80;73.00
36556;DHT22;40859;50.560;7.268;2023-02-26T22:32:05;20.80;73.00
36556;DHT22;40859;50.560;7.268;2023-02-26T22:34:31;20.80;73.00
36556;DHT22;40859;50.560;7.268;2023-02-26T22:36:58;20.80;73.10
36556;DHT22;40859;50.560;7.268;2023-02-26T22:39:24;20.80;73.10
36556;DHT22;40859;50.560;7.268;2023-02-26T22:41:50;20.80;73.10
36556;DHT22;40859;50.560;7.268;2023-02-26T22:44:15;20.80;73.10
36556;DHT22;40859;50.560;7.268;2023-02-26T22:46:41;20.80;73.30
36556;DHT22;40859;50.560;7.268;2023-02-26T22:49:07;20.80;73.10
36556;DHT22;40859;50.560;7.268;2023-02-26T22:51:32;20.80;73.10
36556;DHT22;40859;50.560;7.268;2023-02-26T22:53:58;20.80;73.10
36556;DHT22;40859;50.560;7.268;2023-02-26T22:56:24;20.80;73.10
36556;DHT22;40859;50.560;7.268;2023-02-26T22:58:50;20.80;73.00
36556;DHT22;40859;50.560;7.268;2023-02-26T23:01:16;20.80;72.90
36556;DHT22;40859;50.560;7.268;2023-02-26T23:03:42;20.80;72.80
36556;DHT22;40859;50.560;7.268;2023-02-26T23:06:08;20.80;71.50
36556;DHT22;40859;50.560;7.268;2023-02-26T23:08:33;20.80;72.70
36556;DHT22;40859;50.560;7.268;2023-02-26T23:11:00;20.80;72.80
36556;DHT22;40859;50.560;7.268;2023-02-26T23:13:36;20.80;72.90
36556;DHT22;40859;50.560;7.268;2023-02-26T23:16:02;20.70;73.20
36556;DHT22;40859;50.560;7.268;2023-02-26T23:18:28;20.70;73.30
36556;DHT22;40859;50.560;7.268;2023-02-26T23:20:54;20.70;73.30
36556;DHT22;40859;50.560;7.268;2023-02-26T23:23:19;20.70;73.30
36556;DHT22;40859;50.560;7.268;2023-02-26T23:25:45;20.70;73.20
36556;DHT22;40859;50.560;7.268;2023-02-26T23:28:11;20.70;73.30
36556;DHT22;40859;50.560;7.268;2023-02-26T23:30:37;20.70;73.30
36556;DHT22;40859;50.560;7.268;2023-02-26T23:33:02;20.60;73.30
36556;DHT22;40859;50.560;7.268;2023-02-26T23:35:29;20.60;73.30
36556;DHT22;40859;50.560;7.268;2023-02-26T23:37:55;20.60;73.20
36556;DHT22;40859;50.560;7.268;2023-02-26T23:40:20;20.60;73.30
36556;DHT22;40859;50.560;7.268;2023-02-26T23:42:46;20.60;73.20
36556;DHT22;40859;50.560;7.268;2023-02-26T23:45:12;20.60;73.20
36556;DHT22;40859;50.560;7.268;2023-02-26T23:47:38;20.60;73.20
36556;DHT22;40859;50.560;7.268;2023-02-26T23:50:04;20.60;73.20
36556;DHT22;40859;50.560;7.268;2023-02-26T23:52:31;20.50;73.10
36556;DHT22;40859;50.560;7.268;2023-02-26T23:54:57;20.50;73.10
36556;DHT22;40859;50.560;7.268;2023-02-26T23:57:23;20.50;73.00
36556;DHT22;40859;50.560;7.268;2023-02-26T23:59:48;20.50;73.10
